Time;durP1;ratioP1;P1;durP2;ratioP2;P2;SDS_P1;SDS_P2;PMS_P1;PMS_P2;Temp;Humidity;BMP_temperature;BMP_pressure;BME280_temperature;BME280_humidity;BME280_pressure;Samples;Min_cycle;Max_cycle;Signal;HPM_P1;HPM_P2
2022/05/25 00:00:05;;;;;;;;;;;;;;;14.39;78.13;99604.98;107055;1271;107687;-66
2022/05/25 00:02:59;;;;;;;;;;;;;;;14.38;78.28;99605.73;106166;1271;124753;-66
2022/05/25 00:05:31;;;;;;;;;;;;;;;14.37;78.05;99601.94;106266;1271;96497;-68
2022/05/25 00:08:02;;;;;;;;;;;;;;;14.36;78.29;99600.40;106224;1271;124877;-68
2022/05/25 00:10:32;;;;;;;;;;;;;;;14.35;78.49;99604.64;106189;1270;109441;-67
2022/05/25 00:13:03;;;;;;;;;;;;;;;14.33;78.50;99602.15;106213;1271;126983;-67
2022/05/25 00:15:33;;;;;;;;;;;;;;;14.32;78.46;99612.33;107787;1271;94641;-65
2022/05/25 00:18:04;;;;;;;;;;;;;;;14.31;78.76;99615.01;107760;1271;94742;-64
2022/05/25 00:20:35;;;;;;;;;;;;;;;14.30;78.93;99612.45;106693;1271;124622;-66
2022/05/25 00:23:06;;;;;;;;;;;;;;;14.31;79.02;99619.60;106235;1271;108871;-66
2022/05/25 00:25:37;;;;;;;;;;;;;;;14.30;78.73;99624.56;107718;1271;124419;-66
2022/05/25 00:28:11;;;;;;;;;;;;;;;14.29;78.52;99632.65;107815;1271;95446;-67
2022/05/25 00:30:43;;;;;;;;;;;;;;;14.28;78.71;99630.41;107878;1271;94612;-65
2022/05/25 00:33:14;;;;;;;;;;;;;;;14.28;78.78;99628.36;107815;1271;111145;-64
2022/05/25 00:35:44;;;;;;;;;;;;;;;14.28;79.33;99626.95;107180;1271;107601;-67
2022/05/25 00:38:15;;;;;;;;;;;;;;;14.28;79.56;99617.48;106154;1271;124794;-67
2022/05/25 00:40:46;;;;;;;;;;;;;;;14.28;79.83;99610.16;106261;1271;96687;-66
2022/05/25 00:43:16;;;;;;;;;;;;;;;14.25;79.89;99602.61;106121;1271;124857;-66
2022/05/25 00:45:49;;;;;;;;;;;;;;;14.24;79.69;99602.20;106584;1271;110623;-66
2022/05/25 00:48:22;;;;;;;;;;;;;;;14.23;79.86;99599.77;106239;1271;108103;-65
2022/05/25 00:53:41;;;;;;;;;;;;;;;14.21;79.98;99596.36;106222;1271;96494;-65
2022/05/25 00:56:14;;;;;;;;;;;;;;;14.21;79.96;99598.30;107710;1270;124932;-66
2022/05/25 00:58:48;;;;;;;;;;;;;;;14.23;80.17;99597.70;107771;1271;110571;-66
2022/05/25 01:01:19;;;;;;;;;;;;;;;14.22;80.19;99601.40;107733;1271;125693;-66
2022/05/25 01:03:49;;;;;;;;;;;;;;;14.23;80.23;99608.36;107832;1271;109020;-66
2022/05/25 01:06:25;;;;;;;;;;;;;;;14.23;80.34;99615.16;107777;1271;94961;-66
2022/05/25 01:09:00;;;;;;;;;;;;;;;14.24;80.66;99612.15;107731;1270;124349;-66
2022/05/25 01:11:38;;;;;;;;;;;;;;;14.27;80.88;99607.43;106721;1272;111030;-66
2022/05/25 01:14:16;;;;;;;;;;;;;;;14.28;80.95;99596.83;106097;1271;125081;-65
2022/05/25 01:16:50;;;;;;;;;;;;;;;14.29;81.08;99596.11;107462;1270;108872;-66
2022/05/25 01:19:31;;;;;;;;;;;;;;;14.30;80.83;99596.56;106349;1271;124816;-66
2022/05/25 01:22:06;;;;;;;;;;;;;;;14.30;80.99;99596.52;106275;1270;96514;-66
2022/05/25 01:24:38;;;;;;;;;;;;;;;14.29;80.80;99593.98;106265;1270;111230;-65
2022/05/25 01:27:26;;;;;;;;;;;;;;;14.28;80.90;99596.35;106136;1271;124522;-64
2022/05/25 01:30:03;;;;;;;;;;;;;;;14.26;80.84;99594.86;107819;1269;108879;-66
2022/05/25 01:32:40;;;;;;;;;;;;;;;14.24;80.81;99593.42;107753;1271;125362;-66
2022/05/25 01:35:14;;;;;;;;;;;;;;;14.25;80.96;99595.11;107852;1271;94674;-66
2022/05/25 01:37:47;;;;;;;;;;;;;;;14.24;80.74;99596.23;106768;1271;124629;-66
2022/05/25 01:40:21;;;;;;;;;;;;;;;14.22;81.08;99598.61;107411;1270;108768;-66
2022/05/25 01:42:55;;;;;;;;;;;;;;;14.24;81.02;99594.85;106200;1270;124873;-66
2022/05/25 01:45:29;;;;;;;;;;;;;;;14.24;80.85;99601.09;106277;1271;96554;-66
2022/05/25 01:48:02;;;;;;;;;;;;;;;14.25;81.04;99603.16;106272;1271;96470;-65
2022/05/25 01:50:35;;;;;;;;;;;;;;;14.28;81.14;99603.52;106200;1271;124493;-66
2022/05/25 01:53:08;;;;;;;;;;;;;;;14.30;81.14;99605.80;106249;1271;109193;-66
2022/05/25 01:55:40;;;;;;;;;;;;;;;14.30;81.12;99606.20;106192;1273;124685;-65
2022/05/25 01:58:13;;;;;;;;;;;;;;;14.28;81.43;99603.16;106238;1271;97032;-65
2022/05/25 02:00:46;;;;;;;;;;;;;;;14.25;81.23;99602.61;106379;1270;96491;-67
2022/05/25 02:06:16;;;;;;;;;;;;;;;14.22;81.26;99608.55;106219;1271;108226;-65
2022/05/25 02:08:53;;;;;;;;;;;;;;;14.21;81.65;99611.79;106111;1271;124748;-67
2022/05/25 02:11:28;;;;;;;;;;;;;;;14.21;81.64;99602.86;106232;1271;97125;-66
2022/05/25 02:14:02;;;;;;;;;;;;;;;14.21;81.74;99602.67;106128;1271;125771;-68
2022/05/25 02:16:37;;;;;;;;;;;;;;;14.22;81.84;99605.42;106251;1271;110686;-65
2022/05/25 02:19:12;;;;;;;;;;;;;;;14.20;81.78;99604.80;106150;1271;125797;-66
2022/05/25 02:21:47;;;;;;;;;;;;;;;14.18;81.67;99602.83;107851;1271;108771;-67
2022/05/25 02:24:23;;;;;;;;;;;;;;;14.18;81.98;99600.04;106544;1271;96594;-67
2022/05/25 02:26:56;;;;;;;;;;;;;;;14.18;82.00;99610.00;106191;1271;124525;-67
2022/05/25 02:29:30;;;;;;;;;;;;;;;14.16;81.96;99615.71;107808;1270;109644;-66
2022/05/25 02:32:04;;;;;;;;;;;;;;;14.15;81.98;99616.79;106269;1271;126068;-66
2022/05/25 02:34:35;;;;;;;;;;;;;;;14.17;81.98;99622.14;106234;1271;108363;-66
2022/05/25 02:37:06;;;;;;;;;;;;;;;14.17;82.09;99623.66;107716;1270;126324;-67
2022/05/25 02:39:37;;;;;;;;;;;;;;;14.17;82.11;99619.86;107726;1271;94363;-65
2022/05/25 02:42:14;;;;;;;;;;;;;;;14.19;82.16;99624.84;106308;1271;111164;-65
2022/05/25 02:44:45;;;;;;;;;;;;;;;14.20;82.01;99631.23;106250;1271;124797;-66
2022/05/25 02:47:15;;;;;;;;;;;;;;;14.21;82.13;99636.79;106267;1271;108410;-66
2022/05/25 02:49:46;;;;;;;;;;;;;;;14.23;82.08;99640.16;106215;1270;125797;-67
2022/05/25 02:52:17;;;;;;;;;;;;;;;14.20;82.19;99642.78;106259;1271;96468;-67
2022/05/25 02:54:47;;;;;;;;;;;;;;;14.17;82.19;99645.89;106189;1270;126118;-66
2022/05/25 02:57:18;;;;;;;;;;;;;;;14.16;82.21;99649.13;106236;1271;109291;-67
2022/05/25 02:59:48;;;;;;;;;;;;;;;14.16;82.41;99649.64;106624;1271;109689;-66
2022/05/25 03:02:20;;;;;;;;;;;;;;;14.15;82.48;99654.59;107083;1271;124638;-66
2022/05/25 03:04:50;;;;;;;;;;;;;;;14.14;82.50;99651.65;107849;1271;94458;-66
2022/05/25 03:07:21;;;;;;;;;;;;;;;14.17;82.56;99648.20;106477;1271;124985;-69
2022/05/25 03:09:52;;;;;;;;;;;;;;;14.20;82.57;99648.53;106304;1271;108650;-67
2022/05/25 03:12:22;;;;;;;;;;;;;;;14.24;82.60;99654.10;106241;1271;108992;-65
2022/05/25 03:14:53;;;;;;;;;;;;;;;14.28;82.58;99648.63;106160;1271;124957;-67
2022/05/25 03:17:23;;;;;;;;;;;;;;;14.30;82.36;99647.79;107816;1271;94926;-65
2022/05/25 03:19:55;;;;;;;;;;;;;;;14.33;82.43;99650.95;106271;1271;124524;-65
2022/05/25 03:22:25;;;;;;;;;;;;;;;14.34;82.30;99652.61;106291;1271;108636;-67
2022/05/25 03:24:55;;;;;;;;;;;;;;;14.36;82.31;99653.04;106155;1271;124824;-68
2022/05/25 03:27:26;;;;;;;;;;;;;;;14.39;82.24;99656.41;106359;1271;96481;-67
2022/05/25 03:29:56;;;;;;;;;;;;;;;14.41;82.28;99656.99;106306;1271;96481;-67
2022/05/25 03:32:27;;;;;;;;;;;;;;;14.43;82.09;99657.02;106116;1270;124491;-67
2022/05/25 03:34:59;;;;;;;;;;;;;;;14.45;82.21;99657.26;107055;1271;107863;-68
2022/05/25 03:37:30;;;;;;;;;;;;;;;14.49;82.15;99652.85;106195;1271;125008;-66
2022/05/25 03:40:01;;;;;;;;;;;;;;;14.51;82.05;99654.98;106261;1270;96497;-66
2022/05/25 03:42:32;;;;;;;;;;;;;;;14.55;81.97;99655.33;106346;1271;96588;-65
2022/05/25 03:45:04;;;;;;;;;;;;;;;14.58;81.94;99654.83;106185;1271;124426;-67
2022/05/25 03:47:34;;;;;;;;;;;;;;;14.63;82.04;99656.45;106337;1271;108892;-66
2022/05/25 03:50:06;;;;;;;;;;;;;;;14.68;81.92;99657.72;106188;1271;124717;-67
2022/05/25 03:52:37;;;;;;;;;;;;;;;14.72;81.96;99658.85;107832;1271;94816;-65
2022/05/25 03:55:08;;;;;;;;;;;;;;;14.77;81.71;99661.06;107749;1271;126352;-67
2022/05/25 03:57:39;;;;;;;;;;;;;;;14.81;81.74;99659.91;107808;1270;111429;-64
2022/05/25 04:00:11;;;;;;;;;;;;;;;14.87;81.63;99657.60;106661;1271;108861;-68
2022/05/25 04:02:41;;;;;;;;;;;;;;;14.93;81.51;99660.77;107656;1270;125238;-65
2022/05/25 04:05:12;;;;;;;;;;;;;;;14.93;81.21;99661.48;106685;1271;96560;-65
2022/05/25 04:07:43;;;;;;;;;;;;;;;14.97;81.12;99665.81;106121;1270;125342;-67
2022/05/25 04:10:15;;;;;;;;;;;;;;;15.00;81.08;99666.11;106214;1270;110957;-65
2022/05/25 04:12:46;;;;;;;;;;;;;;;15.04;81.26;99665.68;106166;1270;124923;-65
2022/05/25 04:15:18;;;;;;;;;;;;;;;15.14;81.07;99662.02;106227;1271;107556;-66
2022/05/25 04:17:49;;;;;;;;;;;;;;;15.22;81.00;99659.20;106242;1271;96510;-66
2022/05/25 04:20:20;;;;;;;;;;;;;;;15.31;81.01;99656.77;106143;1271;124545;-67
2022/05/25 04:22:51;;;;;;;;;;;;;;;15.39;80.65;99658.88;106254;1271;110654;-65
2022/05/25 04:25:23;;;;;;;;;;;;;;;15.45;80.55;99663.79;107686;1271;124949;-67
2022/05/25 04:27:54;;;;;;;;;;;;;;;15.54;80.48;99664.45;107535;1268;108829;-66
2022/05/25 04:30:26;;;;;;;;;;;;;;;15.59;80.09;99664.65;106209;1270;97827;-66
2022/05/25 04:32:57;;;;;;;;;;;;;;;15.61;79.86;99665.39;106153;1271;124828;-67
2022/05/25 04:35:27;;;;;;;;;;;;;;;15.63;79.78;99668.95;106851;1272;112868;-66
2022/05/25 04:37:58;;;;;;;;;;;;;;;15.64;79.52;99665.74;106652;1271;124381;-67
2022/05/25 04:40:29;;;;;;;;;;;;;;;15.68;79.60;99659.72;107074;1271;109872;-66
2022/05/25 04:43:01;;;;;;;;;;;;;;;15.75;79.39;99657.40;106169;1271;125891;-66
2022/05/25 04:45:31;;;;;;;;;;;;;;;15.84;79.45;99655.07;107471;1270;96593;-66
2022/05/25 04:48:02;;;;;;;;;;;;;;;15.93;79.08;99652.18;106392;1271;112568;-66
2022/05/25 04:50:34;;;;;;;;;;;;;;;16.00;78.90;99651.04;106587;1271;124694;-67
2022/05/25 04:53:05;;;;;;;;;;;;;;;16.08;78.71;99651.56;107727;1270;106934;-65
2022/05/25 04:58:24;;;;;;;;;;;;;;;16.24;78.20;99653.15;106239;1269;97832;-66
2022/05/25 05:00:55;;;;;;;;;;;;;;;16.35;78.06;99659.27;106159;1270;124194;-67
2022/05/25 05:03:26;;;;;;;;;;;;;;;16.47;77.89;99660.98;107776;1271;108991;-66
2022/05/25 05:05:57;;;;;;;;;;;;;;;16.53;77.59;99663.70;107803;1270;108706;-65
2022/05/25 05:08:28;;;;;;;;;;;;;;;16.61;77.43;99669.14;107687;1271;124576;-66
2022/05/25 05:11:05;;;;;;;;;;;;;;;16.66;77.14;99667.11;107826;1270;96132;-66
2022/05/25 05:13:35;;;;;;;;;;;;;;;16.65;77.10;99662.56;107663;1271;124502;-67
2022/05/25 05:16:07;;;;;;;;;;;;;;;16.68;77.03;99660.14;107776;1271;108696;-66
2022/05/25 05:18:38;;;;;;;;;;;;;;;16.76;77.18;99655.90;107794;1271;108771;-66
2022/05/25 05:21:32;;;;;;;;;;;;;;;16.89;76.84;99656.05;107496;1271;97845;-65
2022/05/25 05:24:03;;;;;;;;;;;;;;;17.02;76.71;99661.37;107061;1270;96505;-65
2022/05/25 05:26:33;;;;;;;;;;;;;;;17.14;76.38;99663.30;106226;1271;124861;-66
2022/05/25 05:29:04;;;;;;;;;;;;;;;17.25;76.30;99663.13;106272;1271;108760;-65
2022/05/25 05:31:34;;;;;;;;;;;;;;;17.36;76.06;99669.70;106865;1271;125831;-66
2022/05/25 05:34:06;;;;;;;;;;;;;;;17.36;75.54;99672.85;107819;1271;96139;-65
2022/05/25 05:36:37;;;;;;;;;;;;;;;17.41;75.52;99674.25;107159;1271;97873;-64
2022/05/25 05:39:09;;;;;;;;;;;;;;;17.50;75.39;99672.61;106174;1271;123403;-65
2022/05/25 05:41:42;;;;;;;;;;;;;;;17.53;75.00;99667.11;106271;1271;107987;-65
2022/05/25 05:44:14;;;;;;;;;;;;;;;17.59;74.88;99671.11;106207;1271;124380;-65
2022/05/25 05:46:45;;;;;;;;;;;;;;;17.63;74.90;99674.70;106290;1271;97865;-65
2022/05/25 05:49:16;;;;;;;;;;;;;;;17.62;74.55;99675.86;107753;1271;124174;-66
2022/05/25 05:51:47;;;;;;;;;;;;;;;17.58;74.60;99679.08;107426;1271;112028;-66
2022/05/25 05:54:18;;;;;;;;;;;;;;;17.57;74.70;99682.12;106267;1271;109221;-66
2022/05/25 05:56:49;;;;;;;;;;;;;;;17.61;74.73;99684.85;106199;1271;124772;-67
2022/05/25 05:59:19;;;;;;;;;;;;;;;17.68;74.80;99682.44;106515;1271;97807;-66
2022/05/25 06:01:50;;;;;;;;;;;;;;;17.74;74.48;99685.02;106167;1271;124288;-66
2022/05/25 06:04:22;;;;;;;;;;;;;;;17.80;74.29;99686.73;106236;1271;112005;-66
2022/05/25 06:06:53;;;;;;;;;;;;;;;17.84;74.11;99690.10;106231;1270;125533;-66
2022/05/25 06:09:24;;;;;;;;;;;;;;;17.82;73.94;99694.66;106290;1273;106452;-67
2022/05/25 06:11:54;;;;;;;;;;;;;;;17.76;73.97;99693.46;106371;1271;97856;-66
2022/05/25 06:14:25;;;;;;;;;;;;;;;17.71;74.07;99698.23;107766;1271;124468;-67
2022/05/25 06:19:43;;;;;;;;;;;;;;;17.60;74.29;99698.82;107720;1271;124784;-67
2022/05/25 06:22:15;;;;;;;;;;;;;;;17.58;74.51;99694.23;107745;1271;109005;-66
2022/05/25 06:24:47;;;;;;;;;;;;;;;17.59;74.58;99689.59;107684;1271;125654;-67
2022/05/25 06:27:18;;;;;;;;;;;;;;;17.62;74.65;99686.71;107835;1271;96226;-68
2022/05/25 06:29:49;;;;;;;;;;;;;;;17.70;74.75;99680.02;107871;1271;111483;-66
2022/05/25 06:32:22;;;;;;;;;;;;;;;17.84;74.70;99675.66;107759;1271;124905;-67
2022/05/25 06:34:52;;;;;;;;;;;;;;;17.97;75.05;99669.98;106542;1271;107542;-66
2022/05/25 06:37:23;;;;;;;;;;;;;;;18.10;75.12;99679.20;106186;1271;125130;-66
2022/05/25 06:39:54;;;;;;;;;;;;;;;18.10;74.96;99673.41;106292;1271;97857;-65
2022/05/25 06:42:24;;;;;;;;;;;;;;;18.14;75.20;99668.98;106281;1271;112100;-66
2022/05/25 06:44:55;;;;;;;;;;;;;;;18.21;75.46;99668.80;107720;1271;124822;-67
2022/05/25 06:47:27;;;;;;;;;;;;;;;18.34;75.46;99664.27;107827;1271;107781;-66
2022/05/25 06:49:58;;;;;;;;;;;;;;;18.50;75.31;99666.83;107699;1271;124970;-66
2022/05/25 06:52:29;;;;;;;;;;;;;;;18.64;75.18;99665.41;107202;1271;97829;-64
2022/05/25 06:54:59;;;;;;;;;;;;;;;18.73;74.74;99661.77;106237;1271;125082;-66
2022/05/25 06:57:29;;;;;;;;;;;;;;;18.81;74.23;99663.30;107708;1271;108035;-66
2022/05/25 07:00:00;;;;;;;;;;;;;;;18.94;73.98;99667.42;106627;1271;109055;-66
2022/05/25 07:02:30;;;;;;;;;;;;;;;19.00;73.49;99672.39;107684;1271;125944;-66
2022/05/25 07:05:01;;;;;;;;;;;;;;;18.99;73.09;99671.41;107791;1271;96828;-66
2022/05/25 07:07:32;;;;;;;;;;;;;;;19.04;73.13;99674.23;107753;1271;124366;-65
2022/05/25 07:10:03;;;;;;;;;;;;;;;19.04;72.96;99680.94;106538;1272;107880;-67
2022/05/25 07:12:33;;;;;;;;;;;;;;;19.06;72.81;99679.02;106248;1271;109234;-67
2022/05/25 07:15:04;;;;;;;;;;;;;;;19.10;72.73;99681.39;106125;1270;124047;-66
2022/05/25 07:17:35;;;;;;;;;;;;;;;19.17;72.69;99685.88;106433;1273;97832;-66
2022/05/25 07:20:09;;;;;;;;;;;;;;;19.20;72.40;99684.95;106158;1271;124337;-67
2022/05/25 07:22:41;;;;;;;;;;;;;;;19.21;72.44;99683.30;106786;1270;108858;-67
2022/05/25 07:25:11;;;;;;;;;;;;;;;19.21;72.30;99686.98;106103;1271;126913;-67
2022/05/25 07:27:42;;;;;;;;;;;;;;;19.23;72.07;99688.61;106209;1271;97795;-66
2022/05/25 07:30:13;;;;;;;;;;;;;;;19.29;72.19;99692.02;106207;1271;98491;-67
2022/05/25 07:32:44;;;;;;;;;;;;;;;19.31;72.10;99690.29;107703;1271;125693;-67
2022/05/25 07:35:16;;;;;;;;;;;;;;;19.31;72.01;99688.13;106678;1273;108935;-66
2022/05/25 07:37:50;;;;;;;;;;;;;;;19.30;71.92;99691.04;106141;1271;125470;-67
2022/05/25 07:40:25;;;;;;;;;;;;;;;19.30;71.63;99688.25;107074;1271;97970;-68
2022/05/25 07:42:58;;;;;;;;;;;;;;;19.28;71.52;99688.41;106230;1271;124310;-66
2022/05/25 07:45:29;;;;;;;;;;;;;;;19.29;71.58;99686.71;106485;1271;110907;-66
2022/05/25 07:48:00;;;;;;;;;;;;;;;19.28;71.70;99687.33;106276;1271;108213;-67
2022/05/25 07:50:38;;;;;;;;;;;;;;;19.20;71.74;99689.55;107694;1271;124460;-68
2022/05/25 07:53:55;;;;;;;;;;;;;;;19.23;72.06;99696.02;107797;1271;95828;-68
2022/05/25 07:56:00;;;;;;;;;;;;;;;19.23;71.72;99696.54;107426;1271;124125;-66
2022/05/25 07:58:30;;;;;;;;;;;;;;;19.17;71.75;99699.32;107808;1271;112403;-67
2022/05/25 08:01:04;;;;;;;;;;;;;;;19.20;71.87;99700.63;107294;1270;125235;-66
2022/05/25 08:06:24;;;;;;;;;;;;;;;19.24;71.76;99707.05;106213;1271;97849;-66
2022/05/25 08:08:55;;;;;;;;;;;;;;;19.27;71.78;99709.47;106309;1271;124878;-66
2022/05/25 08:11:25;;;;;;;;;;;;;;;19.29;71.75;99712.84;106252;1273;112601;-66
2022/05/25 08:13:56;;;;;;;;;;;;;;;19.27;71.70;99715.80;106141;1271;126330;-67
2022/05/25 08:16:27;;;;;;;;;;;;;;;19.22;71.35;99718.48;107787;1271;108839;-67
2022/05/25 08:18:57;;;;;;;;;;;;;;;19.20;71.55;99724.64;106539;1271;125114;-67
2022/05/25 08:21:28;;;;;;;;;;;;;;;19.20;71.51;99723.38;106255;1271;97841;-67
2022/05/25 08:24:15;;;;;;;;;;;;;;;19.16;71.52;99716.67;106296;1271;112462;-68
2022/05/25 08:26:45;;;;;;;;;;;;;;;19.16;71.61;99715.55;107778;1270;125624;-66
2022/05/25 08:29:16;;;;;;;;;;;;;;;19.12;71.62;99715.39;107802;1271;108867;-65
2022/05/25 08:31:46;;;;;;;;;;;;;;;19.10;71.90;99717.63;107763;1271;124784;-67
2022/05/25 08:34:17;;;;;;;;;;;;;;;19.14;71.88;99711.31;107828;1271;95733;-67
2022/05/25 08:36:47;;;;;;;;;;;;;;;19.14;71.61;99713.98;107754;1271;127817;-67
2022/05/25 08:39:18;;;;;;;;;;;;;;;19.07;71.96;99713.83;107831;1271;107850;-66
2022/05/25 08:41:51;;;;;;;;;;;;;;;19.07;72.19;99713.16;107184;1271;108545;-66
2022/05/25 08:44:23;;;;;;;;;;;;;;;19.01;71.83;99713.92;106179;1271;124319;-67
2022/05/25 08:46:56;;;;;;;;;;;;;;;18.91;71.78;99723.54;107789;1273;96003;-67
2022/05/25 08:49:27;;;;;;;;;;;;;;;18.80;71.87;99730.13;106997;1273;124186;-67
2022/05/25 08:52:01;;;;;;;;;;;;;;;18.67;72.07;99735.98;106307;1272;108125;-66
2022/05/25 08:54:35;;;;;;;;;;;;;;;18.57;72.22;99737.95;106164;1273;110935;-68
2022/05/25 08:57:08;;;;;;;;;;;;;;;18.47;72.63;99742.23;106188;1271;124422;-67
2022/05/25 08:59:40;;;;;;;;;;;;;;;18.39;72.69;99747.04;107255;1270;95977;-68
2022/05/25 09:02:17;;;;;;;;;;;;;;;18.30;72.98;99754.16;106214;1271;124117;-66
2022/05/25 09:04:51;;;;;;;;;;;;;;;18.20;73.19;99758.77;106302;1271;108904;-67
2022/05/25 09:07:26;;;;;;;;;;;;;;;18.08;73.18;99756.11;106227;1273;125056;-67
2022/05/25 09:09:56;;;;;;;;;;;;;;;18.00;73.66;99760.86;107784;1271;95780;-67
2022/05/25 09:12:30;;;;;;;;;;;;;;;17.94;73.83;99764.48;107159;1271;96497;-67
2022/05/25 09:15:02;;;;;;;;;;;;;;;17.88;74.23;99768.61;106459;1271;124467;-67
2022/05/25 09:17:43;;;;;;;;;;;;;;;17.83;74.34;99774.27;106278;1271;108192;-67
2022/05/25 09:20:15;;;;;;;;;;;;;;;17.78;74.69;99779.36;106184;1271;125098;-67
2022/05/25 09:22:51;;;;;;;;;;;;;;;17.76;74.76;99777.02;107757;1271;95946;-67
2022/05/25 09:25:22;;;;;;;;;;;;;;;17.67;74.88;99774.80;107654;1270;125034;-68
2022/05/25 09:27:58;;;;;;;;;;;;;;;17.64;75.17;99775.90;107822;1270;111415;-67
2022/05/25 09:30:29;;;;;;;;;;;;;;;17.59;75.21;99773.59;107831;1271;108701;-67
2022/05/25 09:33:02;;;;;;;;;;;;;;;17.54;75.38;99775.35;107717;1271;126612;-67
2022/05/25 09:35:34;;;;;;;;;;;;;;;17.46;75.50;99783.28;107793;1271;96206;-67
2022/05/25 09:38:07;;;;;;;;;;;;;;;17.39;75.64;99786.90;107694;1272;124736;-67
2022/05/25 09:40:41;;;;;;;;;;;;;;;17.30;75.89;99780.45;107816;1271;111485;-67
2022/05/25 09:43:14;;;;;;;;;;;;;;;17.23;75.92;99786.05;106306;1271;125337;-66
2022/05/25 09:45:47;;;;;;;;;;;;;;;17.20;76.02;99783.27;106271;1271;108811;-66
2022/05/25 09:48:22;;;;;;;;;;;;;;;17.16;76.12;99787.52;106234;1271;97869;-67
2022/05/25 09:50:54;;;;;;;;;;;;;;;17.12;76.20;99784.52;106345;1271;124992;-67
2022/05/25 09:53:25;;;;;;;;;;;;;;;17.08;76.36;99785.48;106021;1271;232441;-66
2022/05/25 09:56:01;;;;;;;;;;;;;;;17.10;76.69;99783.41;106175;1271;124953;-66
2022/05/25 09:58:33;;;;;;;;;;;;;;;17.14;76.83;99778.56;107800;1271;108976;-66
2022/05/25 10:01:05;;;;;;;;;;;;;;;17.21;76.76;99779.49;107727;1270;128750;-67
2022/05/25 10:03:38;;;;;;;;;;;;;;;17.29;76.73;99772.85;107856;1271;95713;-67
2022/05/25 10:06:20;;;;;;;;;;;;;;;17.32;76.44;99773.69;107787;1273;111428;-66
2022/05/25 10:08:52;;;;;;;;;;;;;;;17.34;76.34;99773.02;107654;1271;125532;-66
2022/05/25 10:11:33;;;;;;;;;;;;;;;17.35;76.43;99775.41;107746;1271;106664;-66
2022/05/25 10:14:17;;;;;;;;;;;;;;;17.36;76.42;99777.58;107685;1271;124770;-66
2022/05/25 10:16:47;;;;;;;;;;;;;;;17.40;76.52;99777.52;107360;1271;96047;-66
2022/05/25 10:19:19;;;;;;;;;;;;;;;17.42;76.30;99774.92;106533;1271;124924;-66
2022/05/25 10:21:51;;;;;;;;;;;;;;;17.45;76.35;99772.96;107823;1271;108853;-66
2022/05/25 10:24:27;;;;;;;;;;;;;;;17.54;76.26;99777.23;107003;1271;107540;-67
2022/05/25 10:26:58;;;;;;;;;;;;;;;17.67;76.01;99774.97;106128;1273;124837;-67
2022/05/25 10:38:02;;;;;;;;;;;;;;;18.19;74.12;99767.81;106181;1271;125882;-67
2022/05/25 10:40:32;;;;;;;;;;;;;;;18.29;74.15;99766.05;106258;1271;97835;-65
2022/05/25 10:43:03;;;;;;;;;;;;;;;18.33;73.73;99761.35;107763;1271;125207;-66
2022/05/25 10:45:38;;;;;;;;;;;;;;;18.37;73.21;99768.30;107837;1270;111456;-66
2022/05/25 10:48:12;;;;;;;;;;;;;;;18.34;72.49;99760.08;107798;1271;107901;-66
2022/05/25 10:50:47;;;;;;;;;;;;;;;18.33;72.42;99763.33;107723;1271;126021;-67
2022/05/25 10:53:38;;;;;;;;;;;;;;;18.30;72.44;99766.66;107247;1271;97826;-65
2022/05/25 10:56:13;;;;;;;;;;;;;;;18.25;71.82;99760.20;106197;1271;125363;-66
2022/05/25 10:58:58;;;;;;;;;;;;;;;18.15;71.89;99763.73;106290;1271;112545;-66
2022/05/25 11:01:36;;;;;;;;;;;;;;;18.03;71.82;99762.45;106674;1271;124427;-66
2022/05/25 11:04:23;;;;;;;;;;;;;;;17.91;71.53;99765.89;106261;1271;108216;-66
2022/05/25 11:07:00;;;;;;;;;;;;;;;17.81;71.76;99763.65;106208;1271;124321;-66
2022/05/25 11:09:52;;;;;;;;;;;;;;;17.72;71.77;99768.52;106272;1273;97865;-67
2022/05/25 11:12:29;;;;;;;;;;;;;;;17.57;71.60;99777.20;106327;1270;111964;-67
2022/05/25 11:15:03;;;;;;;;;;;;;;;17.47;71.68;99780.32;106191;1271;124848;-67
2022/05/25 11:17:39;;;;;;;;;;;;;;;17.39;71.52;99794.77;107473;1271;108888;-66
2022/05/25 11:20:15;;;;;;;;;;;;;;;17.34;71.39;99800.06;106226;1271;126698;-66
2022/05/25 11:22:51;;;;;;;;;;;;;;;17.23;70.58;99804.13;106335;1271;97826;-67
2022/05/25 11:25:33;;;;;;;;;;;;;;;17.13;70.17;99809.21;106221;1271;125047;-67
2022/05/25 11:28:15;;;;;;;;;;;;;;;17.02;69.96;99807.83;106315;1271;108372;-66
2022/05/25 11:30:57;;;;;;;;;;;;;;;16.88;69.95;99807.15;106200;1271;124505;-66
2022/05/25 11:33:43;;;;;;;;;;;;;;;16.80;70.07;99805.92;107834;1271;95968;-67
2022/05/25 11:36:40;;;;;;;;;;;;;;;16.75;69.92;99801.65;107851;1271;95953;-67
2022/05/25 11:39:16;;;;;;;;;;;;;;;16.71;69.90;99808.45;107851;1270;112508;-66
2022/05/25 11:41:53;;;;;;;;;;;;;;;16.65;69.77;99813.70;107849;1270;108601;-66
2022/05/25 11:44:35;;;;;;;;;;;;;;;16.63;69.99;99824.02;107776;1270;125724;-66
2022/05/25 11:47:12;;;;;;;;;;;;;;;16.60;70.08;99826.14;107632;1270;96108;-65
2022/05/25 11:50:03;;;;;;;;;;;;;;;16.55;70.05;99829.79;106258;1270;124500;-67
2022/05/25 11:52:53;;;;;;;;;;;;;;;16.51;70.21;99836.17;107793;1270;111544;-67
2022/05/25 11:55:27;;;;;;;;;;;;;;;16.54;70.42;99840.23;107013;1270;125085;-65
2022/05/25 11:58:08;;;;;;;;;;;;;;;16.55;70.45;99839.61;107845;1270;109446;-66
2022/05/25 12:00:46;;;;;;;;;;;;;;;16.54;70.49;99840.73;107870;1270;96283;-66
2022/05/25 12:03:33;;;;;;;;;;;;;;;16.50;70.68;99840.83;106512;1270;97816;-66
2022/05/25 12:06:08;;;;;;;;;;;;;;;16.47;70.93;99841.73;105932;1277;112716;-66
2022/05/25 12:08:57;;;;;;;;;;;;;;;16.44;71.15;99840.31;105789;1278;124947;-66
2022/05/25 12:11:35;;;;;;;;;;;;;;;16.41;71.40;99840.17;107222;1277;109097;-66
2022/05/25 12:14:13;;;;;;;;;;;;;;;16.38;71.62;99839.16;105828;1278;125109;-65
2022/05/25 12:16:45;;;;;;;;;;;;;;;16.33;71.80;99839.90;107305;1277;96322;-65
2022/05/25 12:19:18;;;;;;;;;;;;;;;16.28;72.06;99846.89;106832;1277;126502;-66
2022/05/25 12:21:51;;;;;;;;;;;;;;;16.24;71.66;99845.23;107252;1278;107442;-66
2022/05/25 12:24:23;;;;;;;;;;;;;;;16.14;70.69;99846.55;107221;1278;107771;-66
2022/05/25 12:26:56;;;;;;;;;;;;;;;16.07;70.39;99850.67;106037;1277;127147;-66
2022/05/25 12:29:30;;;;;;;;;;;;;;;16.04;70.54;99853.19;105981;1278;98198;-65
2022/05/25 12:32:01;;;;;;;;;;;;;;;15.99;70.72;99856.60;105838;1278;124444;-65
2022/05/25 12:34:35;;;;;;;;;;;;;;;15.95;71.05;99861.75;105885;1279;109081;-65
2022/05/25 12:37:06;;;;;;;;;;;;;;;15.90;71.61;99860.86;106962;1278;124361;-66
2022/05/25 12:39:59;;;;;;;;;;;;;;;15.82;72.02;99871.48;105996;1278;97854;-69
2022/05/25 12:42:38;;;;;;;;;;;;;;;15.68;72.05;99880.05;105870;1277;97797;-65
2022/05/25 12:50:52;;;;;;;;;;;;;;;15.25;71.81;99889.17;106098;1273;125451;-67
2022/05/25 12:53:30;;;;;;;;;;;;;;;15.10;71.49;99884.94;106103;1273;97864;-67
2022/05/25 12:56:00;;;;;;;;;;;;;;;15.00;71.77;99881.48;106038;1273;124947;-66
2022/05/25 12:58:42;;;;;;;;;;;;;;;14.92;71.87;99884.91;106189;1272;112485;-66
2022/05/25 13:01:26;;;;;;;;;;;;;;;14.88;72.15;99884.94;106095;1273;125019;-66
2022/05/25 13:04:17;;;;;;;;;;;;;;;14.86;72.06;99882.79;107743;1272;108931;-66
2022/05/25 13:07:05;;;;;;;;;;;;;;;14.84;72.30;99882.55;107401;1272;126722;-66
2022/05/25 13:09:40;;;;;;;;;;;;;;;14.81;72.16;99885.50;107233;1272;95920;-67
2022/05/25 13:12:28;;;;;;;;;;;;;;;14.84;72.01;99892.55;107249;1273;113122;-65
2022/05/25 13:14:58;;;;;;;;;;;;;;;14.84;71.64;99889.03;107347;1271;124829;-65
2022/05/25 13:17:51;;;;;;;;;;;;;;;14.79;71.41;99885.27;107422;1271;107408;-65
2022/05/25 13:20:48;;;;;;;;;;;;;;;14.76;71.36;99883.35;107023;1271;124250;-65
2022/05/25 13:23:38;;;;;;;;;;;;;;;14.73;71.59;99885.09;107327;1271;96395;-64
2022/05/25 13:26:09;;;;;;;;;;;;;;;14.74;71.57;99883.98;105410;1277;124434;-66
2022/05/25 13:28:45;;;;;;;;;;;;;;;14.70;71.37;99878.44;106856;1277;107091;-66